Time;durP1;ratioP1;P1;durP2;ratioP2;P2;SDS_P1;SDS_P2;PMS_P1;PMS_P2;Temp;Humidity;BMP_temperature;BMP_pressure;BME280_temperature;BME280_humidity;BME280_pressure;Samples;Min_cycle;Max_cycle;Signal;HPM_P1;HPM_P2
2021/01/22 00:00:05;;;;;;;0.93;0.60;;;;;;;;;;4980728;28;20458;-86
2021/01/22 00:02:34;;;;;;;2.83;0.77;;;;;;;;;;4989072;28;20562;-82
2021/01/22 00:05:01;;;;;;;3.05;1.13;;;;;;;;;;4986775;28;20030;-83
2021/01/22 00:07:27;;;;;;;0.95;0.55;;;;;;;;;;4986459;28;20034;-83
2021/01/22 00:09:53;;;;;;;1.27;0.57;;;;;;;;;;4970194;28;20356;-83
2021/01/22 00:12:19;;;;;;;1.00;0.50;;;;;;;;;;4969424;28;20044;-84
2021/01/22 00:14:46;;;;;;;0.80;0.20;;;;;;;;;;4968245;28;20359;-84
2021/01/22 00:17:12;;;;;;;2.40;0.70;;;;;;;;;;4962514;28;20104;-84
2021/01/22 00:19:37;;;;;;;1.00;0.50;;;;;;;;;;4982004;28;20523;-85
2021/01/22 00:22:03;;;;;;;2.80;0.70;;;;;;;;;;4982876;28;20041;-84
2021/01/22 00:24:28;;;;;;;0.57;0.50;;;;;;;;;;4963109;28;20098;-83
2021/01/22 00:26:54;;;;;;;0.63;0.43;;;;;;;;;;4966245;28;20169;-84
2021/01/22 00:29:19;;;;;;;1.35;0.70;;;;;;;;;;4968598;28;20046;-84
2021/01/22 00:31:45;;;;;;;0.57;0.43;;;;;;;;;;4953474;28;20089;-83
2021/01/22 00:34:11;;;;;;;2.28;0.52;;;;;;;;;;4970038;28;20052;-84
2021/01/22 00:36:37;;;;;;;0.73;0.52;;;;;;;;;;4983233;28;20030;-84
2021/01/22 00:39:03;;;;;;;2.63;0.50;;;;;;;;;;4967099;28;20546;-84
2021/01/22 00:41:29;;;;;;;0.57;0.35;;;;;;;;;;4981702;28;20030;-86
2021/01/22 00:43:55;;;;;;;6.93;0.65;;;;;;;;;;4965180;28;20033;-84
2021/01/22 00:46:20;;;;;;;1.02;0.55;;;;;;;;;;4988607;28;20033;-83
2021/01/22 00:48:49;;;;;;;1.15;0.40;;;;;;;;;;4978662;28;20059;-82
2021/01/22 00:51:14;;;;;;;0.70;0.60;;;;;;;;;;4961038;28;20041;-84
2021/01/22 00:53:39;;;;;;;3.30;0.55;;;;;;;;;;4981232;28;20014;-80
2021/01/22 00:56:05;;;;;;;1.35;0.57;;;;;;;;;;4971238;28;20022;-85
2021/01/22 00:58:31;;;;;;;4.20;0.57;;;;;;;;;;4984609;28;20034;-84
2021/01/22 01:00:56;;;;;;;1.73;0.40;;;;;;;;;;4988502;28;20037;-82
2021/01/22 01:03:22;;;;;;;2.20;0.50;;;;;;;;;;4966041;28;20116;-85
2021/01/22 01:05:47;;;;;;;2.53;0.68;;;;;;;;;;4980740;28;20328;-83
2021/01/22 01:08:13;;;;;;;0.22;0.22;;;;;;;;;;4967311;28;20297;-81
2021/01/22 01:10:39;;;;;;;3.92;0.65;;;;;;;;;;4972373;28;20042;-82
2021/01/22 01:13:05;;;;;;;0.35;0.10;;;;;;;;;;4988188;28;20037;-84
2021/01/22 01:15:31;;;;;;;1.65;0.63;;;;;;;;;;4968819;28;20124;-84
2021/01/22 01:17:57;;;;;;;1.95;0.40;;;;;;;;;;4987881;28;20117;-83
2021/01/22 01:20:23;;;;;;;0.55;0.20;;;;;;;;;;4987094;28;20493;-84
2021/01/22 01:22:48;;;;;;;0.17;0.17;;;;;;;;;;4985792;28;20077;-83
2021/01/22 01:25:14;;;;;;;3.30;0.43;;;;;;;;;;4969026;28;20057;-83
2021/01/22 01:27:39;;;;;;;2.85;0.40;;;;;;;;;;4987192;28;20084;-83
2021/01/22 01:30:14;;;;;;;0.98;0.47;;;;;;;;;;4973532;28;20484;-81
2021/01/22 01:32:41;;;;;;;0.55;0.20;;;;;;;;;;4980387;28;20093;-83
2021/01/22 01:35:07;;;;;;;2.03;0.28;;;;;;;;;;4968958;28;20046;-82
2021/01/22 01:37:33;;;;;;;5.60;0.50;;;;;;;;;;4970398;28;20026;-81
2021/01/22 01:39:58;;;;;;;0.13;0.10;;;;;;;;;;4991341;28;20096;-84
2021/01/22 01:42:25;;;;;;;0.30;0.20;;;;;;;;;;4985715;28;20076;-83
2021/01/22 01:44:50;;;;;;;3.42;0.50;;;;;;;;;;4967028;28;20437;-83
2021/01/22 01:47:16;;;;;;;1.55;0.40;;;;;;;;;;4970959;28;20617;-83
2021/01/22 01:49:44;;;;;;;0.93;0.43;;;;;;;;;;4989875;28;20032;-84
2021/01/22 01:52:09;;;;;;;0.45;0.20;;;;;;;;;;4971181;28;20034;-83
2021/01/22 01:54:35;;;;;;;0.35;0.20;;;;;;;;;;4970580;28;20437;-84
2021/01/22 01:57:03;;;;;;;1.65;0.38;;;;;;;;;;4972965;28;20041;-81
2021/01/22 01:59:29;;;;;;;0.00;0.00;;;;;;;;;;4960421;28;20109;-85
2021/01/22 02:01:55;;;;;;;1.25;0.20;;;;;;;;;;4972993;28;20036;-81
2021/01/22 02:04:23;;;;;;;0.32;0.10;;;;;;;;;;4991471;28;20021;-82
2021/01/22 02:06:49;;;;;;;0.00;0.00;;;;;;;;;;4972317;28;20093;-84
2021/01/22 02:09:14;;;;;;;0.25;0.13;;;;;;;;;;4968592;28;20475;-83
2021/01/22 02:11:43;;;;;;;0.10;0.10;;;;;;;;;;4970467;28;20379;-85
2021/01/22 02:14:10;;;;;;;0.30;0.22;;;;;;;;;;4986999;28;20022;-84
2021/01/22 02:16:36;;;;;;;3.58;0.50;;;;;;;;;;4993343;28;20058;-84
2021/01/22 02:19:04;;;;;;;1.67;0.30;;;;;;;;;;4972814;28;20026;-84
2021/01/22 02:21:34;;;;;;;0.32;0.15;;;;;;;;;;4990648;28;20041;-85
2021/01/22 02:24:13;;;;;;;2.38;0.40;;;;;;;;;;4988468;28;20034;-83
2021/01/22 02:26:57;;;;;;;0.68;0.35;;;;;;;;;;4987428;28;20041;-83
2021/01/22 02:29:25;;;;;;;1.08;0.38;;;;;;;;;;4989084;28;20065;-83
2021/01/22 02:31:52;;;;;;;3.13;0.40;;;;;;;;;;4981975;28;20031;-81
2021/01/22 02:34:20;;;;;;;2.28;0.40;;;;;;;;;;4988903;28;20033;-83
2021/01/22 02:36:45;;;;;;;1.75;0.50;;;;;;;;;;4987117;28;20026;-84
2021/01/22 02:39:14;;;;;;;0.40;0.28;;;;;;;;;;4966840;28;20173;-83
2021/01/22 02:41:41;;;;;;;1.30;0.50;;;;;;;;;;4971615;28;20087;-86
2021/01/22 02:44:09;;;;;;;0.90;0.40;;;;;;;;;;4988052;28;20022;-84
2021/01/22 02:46:37;;;;;;;2.17;0.70;;;;;;;;;;4971213;28;20137;-83
2021/01/22 02:49:03;;;;;;;0.57;0.50;;;;;;;;;;4988821;28;20482;-86
2021/01/22 02:51:31;;;;;;;1.27;0.40;;;;;;;;;;4948392;28;20042;-84
2021/01/22 02:53:57;;;;;;;1.23;0.52;;;;;;;;;;4970346;28;20026;-84
2021/01/22 02:56:25;;;;;;;1.75;0.63;;;;;;;;;;4968878;28;20041;-84
2021/01/22 02:59:17;;;;;;;2.70;0.55;;;;;;;;;;4988620;28;20070;-84
2021/01/22 03:01:48;;;;;;;4.57;0.88;;;;;;;;;;4951095;28;20042;-84
2021/01/22 03:04:14;;;;;;;7.55;1.27;;;;;;;;;;4986799;28;20022;-83
2021/01/22 03:06:40;;;;;;;0.63;0.60;;;;;;;;;;4985793;28;20023;-84
2021/01/22 03:09:08;;;;;;;1.17;0.80;;;;;;;;;;4987189;28;20030;-85
2021/01/22 03:11:39;;;;;;;2.55;1.08;;;;;;;;;;4986397;28;20085;-83
2021/01/22 03:14:05;;;;;;;2.45;0.80;;;;;;;;;;4981174;28;20065;-84
2021/01/22 03:16:34;;;;;;;1.52;1.42;;;;;;;;;;4969804;28;20645;-82
2021/01/22 03:19:03;;;;;;;3.58;1.30;;;;;;;;;;4969235;28;20061;-85
2021/01/22 03:21:28;;;;;;;2.70;1.40;;;;;;;;;;4969340;28;20114;-82
2021/01/22 03:23:54;;;;;;;1.20;0.88;;;;;;;;;;4986267;28;20458;-84
2021/01/22 03:26:20;;;;;;;6.15;1.13;;;;;;;;;;4987998;28;20037;-85
2021/01/22 03:28:46;;;;;;;7.22;1.40;;;;;;;;;;4970607;28;20066;-83
2021/01/22 03:31:11;;;;;;;4.75;1.40;;;;;;;;;;4984042;28;20030;-83
2021/01/22 03:33:39;;;;;;;2.70;0.90;;;;;;;;;;4998971;28;20053;-83
2021/01/22 03:36:05;;;;;;;3.45;1.25;;;;;;;;;;4995624;28;20129;-82
2021/01/22 03:38:30;;;;;;;7.30;1.60;;;;;;;;;;4984617;28;20026;-83
2021/01/22 03:40:56;;;;;;;2.17;1.48;;;;;;;;;;4968470;28;20037;-85
2021/01/22 03:43:25;;;;;;;7.18;1.58;;;;;;;;;;4987891;28;20593;-83
2021/01/22 03:45:52;;;;;;;2.60;1.70;;;;;;;;;;4985002;28;20053;-82
2021/01/22 03:48:20;;;;;;;4.95;1.27;;;;;;;;;;4985131;28;20046;-83
2021/01/22 03:50:45;;;;;;;3.22;1.02;;;;;;;;;;4953592;28;20069;-82
2021/01/22 03:53:11;;;;;;;1.75;1.00;;;;;;;;;;4967907;28;20041;-83
2021/01/22 03:55:39;;;;;;;4.45;1.30;;;;;;;;;;4968640;28;20104;-85
2021/01/22 03:58:04;;;;;;;4.53;1.10;;;;;;;;;;4965779;28;20090;-82
2021/01/22 04:00:33;;;;;;;8.15;1.42;;;;;;;;;;4971787;28;20590;-83
2021/01/22 04:02:58;;;;;;;9.63;1.23;;;;;;;;;;4968033;28;21426;-83
2021/01/22 04:05:26;;;;;;;2.88;1.15;;;;;;;;;;4986329;28;20029;-83
2021/01/22 04:07:57;;;;;;;3.08;1.30;;;;;;;;;;4981393;28;20039;-83
2021/01/22 04:10:22;;;;;;;3.75;1.30;;;;;;;;;;4951753;28;20034;-85
2021/01/22 04:12:47;;;;;;;2.20;1.00;;;;;;;;;;4983946;28;20208;-84
2021/01/22 04:15:15;;;;;;;2.20;1.23;;;;;;;;;;4986706;28;20098;-83
2021/01/22 04:17:40;;;;;;;2.05;0.85;;;;;;;;;;4967517;28;20682;-85
2021/01/22 04:20:07;;;;;;;2.10;1.30;;;;;;;;;;4987696;28;20572;-85
2021/01/22 04:22:35;;;;;;;4.72;1.30;;;;;;;;;;4968610;28;20178;-84
2021/01/22 04:25:01;;;;;;;6.03;0.90;;;;;;;;;;4986706;28;20038;-82
2021/01/22 04:27:31;;;;;;;3.33;0.85;;;;;;;;;;4967953;28;20037;-82
2021/01/22 04:29:56;;;;;;;6.53;0.80;;;;;;;;;;4984140;28;20041;-83
2021/01/22 04:32:22;;;;;;;4.18;1.00;;;;;;;;;;4969745;28;20034;-86
2021/01/22 04:34:52;;;;;;;4.63;1.20;;;;;;;;;;4962931;28;20085;-85
2021/01/22 04:37:18;;;;;;;3.20;0.95;;;;;;;;;;4970423;28;20109;-84
2021/01/22 04:39:45;;;;;;;4.45;1.63;;;;;;;;;;4984243;28;20038;-84
2021/01/22 04:42:11;;;;;;;6.55;1.85;;;;;;;;;;4987773;28;20045;-84
2021/01/22 04:44:39;;;;;;;8.68;2.28;;;;;;;;;;4968839;28;20041;-84
2021/01/22 04:47:06;;;;;;;7.28;2.03;;;;;;;;;;4973593;28;20474;-85
2021/01/22 04:49:34;;;;;;;5.50;2.25;;;;;;;;;;4973964;28;20034;-84
2021/01/22 04:52:01;;;;;;;10.00;3.25;;;;;;;;;;4990022;28;20045;-84
2021/01/22 04:54:28;;;;;;;11.02;2.33;;;;;;;;;;4988888;28;20026;-85
2021/01/22 04:56:57;;;;;;;8.57;2.08;;;;;;;;;;4992572;28;20648;-85
2021/01/22 04:59:32;;;;;;;7.38;3.13;;;;;;;;;;4988582;28;20168;-85
2021/01/22 05:01:59;;;;;;;15.40;4.80;;;;;;;;;;4987057;28;20808;-82
2021/01/22 05:04:25;;;;;;;6.90;3.30;;;;;;;;;;4990145;28;20018;-82
2021/01/22 05:06:50;;;;;;;12.77;4.00;;;;;;;;;;4987267;28;20416;-83
2021/01/22 05:09:18;;;;;;;13.52;4.43;;;;;;;;;;4990564;28;20030;-83
2021/01/22 05:11:46;;;;;;;9.95;3.78;;;;;;;;;;4989978;28;20056;-84
2021/01/22 05:14:11;;;;;;;9.73;4.88;;;;;;;;;;4987737;28;20431;-84
2021/01/22 05:16:37;;;;;;;10.65;4.15;;;;;;;;;;4989645;28;20038;-83
2021/01/22 05:19:34;;;;;;;12.18;4.32;;;;;;;;;;4990851;28;20026;-85
2021/01/22 05:22:01;;;;;;;11.18;4.55;;;;;;;;;;4969431;28;20058;-83
2021/01/22 05:24:29;;;;;;;7.95;3.72;;;;;;;;;;4993936;28;20109;-82
2021/01/22 05:27:05;;;;;;;11.00;2.15;;;;;;;;;;4997109;28;20096;-84
2021/01/22 05:29:37;;;;;;;9.57;3.40;;;;;;;;;;4993032;28;20050;-83
2021/01/22 05:32:24;;;;;;;16.45;4.13;;;;;;;;;;4977133;28;20045;-83
2021/01/22 05:34:50;;;;;;;6.43;3.08;;;;;;;;;;4993330;28;20041;-84
2021/01/22 05:37:18;;;;;;;8.68;2.72;;;;;;;;;;4989448;28;20033;-84
2021/01/22 05:39:46;;;;;;;9.20;2.70;;;;;;;;;;4989135;28;20022;-83
2021/01/22 05:42:13;;;;;;;9.18;2.85;;;;;;;;;;4968813;28;20037;-83
2021/01/22 05:44:52;;;;;;;9.18;3.03;;;;;;;;;;4969808;28;20019;-83
2021/01/22 05:47:18;;;;;;;10.93;4.05;;;;;;;;;;4988654;28;20026;-83
2021/01/22 05:49:53;;;;;;;6.78;2.83;;;;;;;;;;4984775;28;20573;-84
2021/01/22 05:52:22;;;;;;;10.18;2.60;;;;;;;;;;4986058;28;20465;-84
2021/01/22 05:54:49;;;;;;;7.47;3.17;;;;;;;;;;4987685;28;20049;-82
2021/01/22 05:57:14;;;;;;;11.93;3.40;;;;;;;;;;4990934;28;20065;-85
2021/01/22 05:59:40;;;;;;;11.40;2.95;;;;;;;;;;4987458;28;20708;-84
2021/01/22 06:02:28;;;;;;;9.65;4.35;;;;;;;;;;4973684;28;20597;-84
2021/01/22 06:05:12;;;;;;;8.23;4.07;;;;;;;;;;4995683;28;20567;-83
2021/01/22 06:07:39;;;;;;;11.60;4.88;;;;;;;;;;4987822;28;20040;-84
2021/01/22 06:10:15;;;;;;;20.25;4.65;;;;;;;;;;4988227;28;20048;-83
2021/01/22 06:12:46;;;;;;;16.05;4.18;;;;;;;;;;4984479;28;20563;-84
2021/01/22 06:15:12;;;;;;;15.32;4.32;;;;;;;;;;4966742;28;20100;-82
2021/01/22 06:17:38;;;;;;;9.45;3.35;;;;;;;;;;4989121;28;20061;-85
2021/01/22 06:20:05;;;;;;;10.50;4.68;;;;;;;;;;4968628;28;20056;-83
2021/01/22 06:22:32;;;;;;;12.63;5.20;;;;;;;;;;4987158;28;20029;-84
2021/01/22 06:25:01;;;;;;;10.52;4.22;;;;;;;;;;4972626;28;20022;-84
2021/01/22 06:27:30;;;;;;;8.05;2.10;;;;;;;;;;4965634;28;20057;-85
2021/01/22 06:29:58;;;;;;;6.68;2.92;;;;;;;;;;4981705;28;20046;-85
2021/01/22 06:32:23;;;;;;;9.30;2.65;;;;;;;;;;4987106;28;20174;-84
2021/01/22 06:34:53;;;;;;;7.57;2.53;;;;;;;;;;4987282;28;20073;-84
2021/01/22 06:37:20;;;;;;;7.32;3.33;;;;;;;;;;4988752;28;20065;-86
2021/01/22 06:39:45;;;;;;;12.18;4.22;;;;;;;;;;4985771;28;20106;-83
2021/01/22 06:42:11;;;;;;;9.82;4.20;;;;;;;;;;4968104;28;20608;-83
2021/01/22 06:44:36;;;;;;;8.57;4.05;;;;;;;;;;4990799;28;20031;-83
2021/01/22 06:47:12;;;;;;;15.18;4.80;;;;;;;;;;4976704;28;20056;-83
2021/01/22 06:49:39;;;;;;;11.25;4.00;;;;;;;;;;4993865;28;20034;-82
2021/01/22 06:52:14;;;;;;;14.07;5.38;;;;;;;;;;4974947;28;20034;-84
2021/01/22 06:55:12;;;;;;;19.38;6.60;;;;;;;;;;4966750;28;20117;-86
2021/01/22 06:57:38;;;;;;;17.45;6.22;;;;;;;;;;4934555;28;20126;-82
2021/01/22 07:00:22;;;;;;;14.95;4.72;;;;;;;;;;4968762;28;20398;-83
2021/01/22 07:02:47;;;;;;;14.47;5.83;;;;;;;;;;4985951;28;20128;-83
2021/01/22 07:05:28;;;;;;;21.35;6.15;;;;;;;;;;4971672;28;20368;-84
2021/01/22 07:19:14;;;;;;;19.70;6.70;;;;;;;;;;4946695;28;20176;-82
2021/01/22 07:22:27;;;;;;;12.80;5.43;;;;;;;;;;4927908;28;20034;-82
2021/01/22 07:26:09;;;;;;;;;;;;;;;;;;;;;
2021/01/22 07:36:47;;;;;;;;;;;;;;;;;;;;;
2021/01/22 07:47:13;;;;;;;8.25;3.97;;;;;;;;;;4941034;28;20493;-82
2021/01/22 07:57:42;;;;;;;13.05;4.35;;;;;;;;;;4915926;29;20062;-82
2021/01/22 08:07:44;;;;;;;18.75;4.30;;;;;;;;;;4937249;28;20162;-82
2021/01/22 08:24:26;;;;;;;7.70;2.38;;;;;;;;;;4992898;28;20580;-62
2021/01/22 08:27:01;;;;;;;12.32;3.13;;;;;;;;;;4986511;28;20496;-63
2021/01/22 08:29:29;;;;;;;12.43;4.13;;;;;;;;;;4971534;28;20037;-63
2021/01/22 08:34:58;;;;;;;14.00;5.20;;;;;;;;;;4992128;28;20049;-61
2021/01/22 08:37:44;;;;;;;10.30;4.32;;;;;;;;;;4985783;28;20128;-63
2021/01/22 08:40:10;;;;;;;16.45;3.75;;;;;;;;;;4990584;28;20539;-63
2021/01/22 08:42:42;;;;;;;9.45;2.22;;;;;;;;;;4984783;28;20829;-62
2021/01/22 08:45:10;;;;;;;5.45;2.50;;;;;;;;;;4983079;28;20037;-61
2021/01/22 08:47:41;;;;;;;10.13;2.85;;;;;;;;;;4990591;28;20459;-62
2021/01/22 08:50:10;;;;;;;10.02;4.25;;;;;;;;;;4986684;28;20037;-62
2021/01/22 08:52:38;;;;;;;14.40;4.65;;;;;;;;;;4981910;28;20041;-63
2021/01/22 08:55:28;;;;;;;11.90;4.43;;;;;;;;;;4980820;28;20019;-65
2021/01/22 08:58:05;;;;;;;9.60;3.78;;;;;;;;;;4989681;28;20026;-63
2021/01/22 09:00:33;;;;;;;17.10;4.10;;;;;;;;;;4987184;28;20030;-62
2021/01/22 09:03:01;;;;;;;9.65;3.97;;;;;;;;;;4980646;28;20127;-63
2021/01/22 09:05:31;;;;;;;12.82;4.18;;;;;;;;;;4971740;28;20759;-62
2021/01/22 09:08:05;;;;;;;8.13;3.50;;;;;;;;;;4987196;28;20412;-62
2021/01/22 09:10:34;;;;;;;4.50;1.92;;;;;;;;;;4990806;28;20062;-64
2021/01/22 09:13:10;;;;;;;17.10;2.97;;;;;;;;;;4984132;28;20505;-60
2021/01/22 09:15:35;;;;;;;8.43;1.67;;;;;;;;;;4971456;28;20088;-64
2021/01/22 09:18:14;;;;;;;7.72;2.92;;;;;;;;;;4978702;28;20355;-61
2021/01/22 09:20:43;;;;;;;12.63;2.50;;;;;;;;;;4991672;28;20820;-62
2021/01/22 09:23:31;;;;;;;21.48;2.63;;;;;;;;;;4983700;28;20052;-63
2021/01/22 09:29:33;;;;;;;17.57;2.17;;;;;;;;;;4981684;28;20104;-61
2021/01/22 09:31:58;;;;;;;8.70;3.22;;;;;;;;;;4978072;28;20301;-62
2021/01/22 09:34:25;;;;;;;6.82;2.53;;;;;;;;;;4986840;28;20297;-61
2021/01/22 09:36:53;;;;;;;5.38;2.80;;;;;;;;;;4987527;28;20045;-63
2021/01/22 09:39:21;;;;;;;9.02;3.10;;;;;;;;;;4986816;28;20057;-63
2021/01/22 09:41:49;;;;;;;10.40;3.38;;;;;;;;;;4986242;28;20417;-63
2021/01/22 09:44:23;;;;;;;10.75;3.17;;;;;;;;;;4983679;28;20068;-64
2021/01/22 09:50:32;;;;;;;9.27;2.10;;;;;;;;;;4983994;28;20575;-64
2021/01/22 09:53:06;;;;;;;12.25;2.28;;;;;;;;;;4974297;28;20207;-61
2021/01/22 09:55:31;;;;;;;13.32;2.17;;;;;;;;;;4977417;28;20594;-62
2021/01/22 09:57:57;;;;;;;10.82;2.05;;;;;;;;;;4976104;28;20292;-64
2021/01/22 10:00:22;;;;;;;16.38;2.30;;;;;;;;;;4984686;28;20077;-62
2021/01/22 10:02:50;;;;;;;19.65;2.30;;;;;;;;;;4979241;28;20045;-62
2021/01/22 10:05:20;;;;;;;12.65;2.38;;;;;;;;;;4976069;28;20038;-64
2021/01/22 10:07:46;;;;;;;9.63;2.50;;;;;;;;;;4983570;28;20046;-62
2021/01/22 10:10:11;;;;;;;12.70;1.92;;;;;;;;;;4984702;28;20057;-62
2021/01/22 10:13:11;;;;;;;12.27;2.22;;;;;;;;;;4984692;28;20080;-64
2021/01/22 10:15:46;;;;;;;10.20;2.58;;;;;;;;;;4981278;28;20444;-64
2021/01/22 10:18:30;;;;;;;6.45;2.58;;;;;;;;;;4985068;28;20034;-62
2021/01/22 10:20:55;;;;;;;19.17;2.90;;;;;;;;;;4963817;28;20064;-62
2021/01/22 10:23:26;;;;;;;11.45;3.00;;;;;;;;;;4968081;28;20037;-61
2021/01/22 10:25:51;;;;;;;15.10;3.10;;;;;;;;;;4967974;28;20508;-62
2021/01/22 10:28:19;;;;;;;9.07;2.28;;;;;;;;;;4982631;28;20793;-62
2021/01/22 10:30:50;;;;;;;17.05;2.15;;;;;;;;;;4983474;28;20469;-62
2021/01/22 10:33:18;;;;;;;9.55;2.03;;;;;;;;;;4976158;28;20044;-63
2021/01/22 10:35:50;;;;;;;11.65;3.20;;;;;;;;;;4976671;28;20030;-61
2021/01/22 10:38:16;;;;;;;14.27;2.63;;;;;;;;;;4984005;28;20037;-62
2021/01/22 10:40:42;;;;;;;8.63;1.92;;;;;;;;;;4962431;28;20038;-63
2021/01/22 10:43:12;;;;;;;9.93;2.33;;;;;;;;;;4958952;28;20124;-61
2021/01/22 10:45:41;;;;;;;14.50;2.25;;;;;;;;;;4985238;28;20565;-63
2021/01/22 10:48:16;;;;;;;15.15;2.38;;;;;;;;;;4983841;28;20481;-64
2021/01/22 10:50:42;;;;;;;5.68;1.77;;;;;;;;;;4984898;28;20029;-64
2021/01/22 10:53:08;;;;;;;21.63;2.92;;;;;;;;;;4965011;28;20044;-63
2021/01/22 10:55:36;;;;;;;8.73;1.65;;;;;;;;;;4980803;28;20061;-65
2021/01/22 10:58:02;;;;;;;10.43;1.85;;;;;;;;;;4982907;28;20120;-61
2021/01/22 11:00:30;;;;;;;12.00;1.83;;;;;;;;;;4984165;28;20969;-62
2021/01/22 11:03:07;;;;;;;15.57;2.25;;;;;;;;;;4966369;28;20033;-63
2021/01/22 11:05:35;;;;;;;7.55;1.38;;;;;;;;;;4986266;28;20030;-62
2021/01/22 11:08:12;;;;;;;4.93;1.27;;;;;;;;;;4985399;28;20096;-62
2021/01/22 11:10:38;;;;;;;11.55;2.72;;;;;;;;;;4984752;28;20493;-62
2021/01/22 11:13:05;;;;;;;8.75;1.48;;;;;;;;;;4985798;28;20120;-60
2021/01/22 11:15:52;;;;;;;19.20;2.30;;;;;;;;;;4980285;28;20564;-62
2021/01/22 11:18:18;;;;;;;5.80;1.20;;;;;;;;;;4983730;28;20044;-62
2021/01/22 11:20:56;;;;;;;11.43;1.63;;;;;;;;;;4985097;28;20050;-62
2021/01/22 11:23:26;;;;;;;13.75;1.67;;;;;;;;;;4985314;28;20042;-63
2021/01/22 11:25:55;;;;;;;11.82;1.60;;;;;;;;;;4977988;28;20037;-62
2021/01/22 11:28:35;;;;;;;11.13;1.73;;;;;;;;;;4983405;28;20025;-63
2021/01/22 11:31:41;;;;;;;12.02;1.35;;;;;;;;;;4987997;28;20033;-62
2021/01/22 11:34:37;;;;;;;11.00;1.35;;;;;;;;;;4985716;28;20072;-63
2021/01/22 11:37:05;;;;;;;7.63;1.63;;;;;;;;;;4987305;28;20030;-63
2021/01/22 11:39:35;;;;;;;18.02;2.03;;;;;;;;;;4975352;28;20473;-65
2021/01/22 11:42:02;;;;;;;10.40;1.67;;;;;;;;;;4974084;28;20053;-63
2021/01/22 11:44:32;;;;;;;9.18;1.60;;;;;;;;;;4983255;28;20022;-64
2021/01/22 11:47:11;;;;;;;10.05;1.92;;;;;;;;;;4969398;28;20030;-62
2021/01/22 11:49:36;;;;;;;15.40;2.90;;;;;;;;;;4983830;28;20425;-62
2021/01/22 11:52:02;;;;;;;16.42;1.92;;;;;;;;;;4977355;28;20045;-63
2021/01/22 11:54:28;;;;;;;12.15;2.30;;;;;;;;;;4964251;28;20049;-63
2021/01/22 11:56:55;;;;;;;9.85;1.60;;;;;;;;;;4966053;28;20606;-64
2021/01/22 11:59:36;;;;;;;7.43;1.38;;;;;;;;;;4976034;28;20056;-64
2021/01/22 12:02:06;;;;;;;16.42;1.58;;;;;;;;;;4981097;28;20033;-64
2021/01/22 12:04:31;;;;;;;11.13;1.60;;;;;;;;;;4982217;28;20026;-64
2021/01/22 12:06:57;;;;;;;10.90;1.50;;;;;;;;;;4984897;28;20059;-63
2021/01/22 12:09:26;;;;;;;11.77;1.90;;;;;;;;;;4973183;28;20042;-68
2021/01/22 12:11:57;;;;;;;8.18;1.80;;;;;;;;;;4979244;28;20042;-64
2021/01/22 12:14:25;;;;;;;17.47;1.90;;;;;;;;;;4976596;28;20512;-65
2021/01/22 12:16:51;;;;;;;10.00;1.80;;;;;;;;;;4964683;28;20324;-63
2021/01/22 12:22:54;;;;;;;10.63;1.83;;;;;;;;;;4979638;28;20413;-63
2021/01/22 12:25:45;;;;;;;11.13;1.40;;;;;;;;;;4982126;28;20038;-66
2021/01/22 12:28:13;;;;;;;9.27;1.85;;;;;;;;;;4977136;28;20442;-65
2021/01/22 12:30:48;;;;;;;11.00;1.80;;;;;;;;;;4980654;28;20025;-65
2021/01/22 12:33:16;;;;;;;7.35;1.42;;;;;;;;;;4975578;28;22177;-65
2021/01/22 12:36:01;;;;;;;7.82;1.38;;;;;;;;;;4984219;28;20030;-66
2021/01/22 12:38:53;;;;;;;11.75;1.48;;;;;;;;;;4933162;28;20597;-66
2021/01/22 12:41:18;;;;;;;9.68;1.55;;;;;;;;;;4933386;28;20042;-65
2021/01/22 12:43:48;;;;;;;14.27;1.55;;;;;;;;;;4920575;28;20095;-65
2021/01/22 12:49:42;;;;;;;12.43;1.88;;;;;;;;;;4938205;28;20546;-65
2021/01/22 12:52:11;;;;;;;9.07;1.55;;;;;;;;;;4904758;28;20138;-65
2021/01/22 12:54:36;;;;;;;13.40;1.52;;;;;;;;;;4938459;28;20602;-64
2021/01/22 12:57:04;;;;;;;8.52;1.52;;;;;;;;;;4923448;28;20144;-65
2021/01/22 12:59:30;;;;;;;11.63;1.15;;;;;;;;;;4937177;28;20046;-65
2021/01/22 13:01:58;;;;;;;12.23;1.60;;;;;;;;;;4919034;28;20257;-66
2021/01/22 13:04:44;;;;;;;11.50;1.75;;;;;;;;;;4924908;28;20455;-68
2021/01/22 13:07:26;;;;;;;4.32;1.33;;;;;;;;;;4940213;28;20049;-66
2021/01/22 13:09:51;;;;;;;13.68;2.08;;;;;;;;;;4958683;28;20068;-67
2021/01/22 13:12:20;;;;;;;17.58;2.40;;;;;;;;;;4987446;28;20025;-67
2021/01/22 13:14:49;;;;;;;8.80;1.30;;;;;;;;;;4983166;28;20136;-70
2021/01/22 13:17:14;;;;;;;6.75;1.27;;;;;;;;;;4969171;28;20030;-67
2021/01/22 13:23:15;;;;;;;17.15;2.30;;;;;;;;;;4987039;28;20045;-67
2021/01/22 13:25:41;;;;;;;7.15;1.75;;;;;;;;;;4967210;28;20437;-69
2021/01/22 13:28:06;;;;;;;10.77;1.92;;;;;;;;;;4984841;28;20440;-67
2021/01/22 13:30:31;;;;;;;14.40;2.13;;;;;;;;;;4965373;28;20041;-66
2021/01/22 13:33:02;;;;;;;11.98;1.67;;;;;;;;;;4982882;28;20056;-69
2021/01/22 13:35:27;;;;;;;10.30;1.58;;;;;;;;;;4968629;28;20030;-67
2021/01/22 13:41:43;;;;;;;15.15;1.55;;;;;;;;;;4986126;28;20136;-67
2021/01/22 13:47:58;;;;;;;11.88;1.75;;;;;;;;;;4981108;28;20037;-68
2021/01/22 13:53:32;;;;;;;12.18;2.25;;;;;;;;;;4985664;28;20049;-67
2021/01/22 13:56:00;;;;;;;10.38;1.92;;;;;;;;;;4961609;28;20418;-65
2021/01/22 13:58:30;;;;;;;16.55;1.90;;;;;;;;;;4959556;28;20217;-67
2021/01/22 14:00:56;;;;;;;8.90;1.38;;;;;;;;;;4984021;28;20501;-66
2021/01/22 14:03:26;;;;;;;11.45;1.55;;;;;;;;;;4976199;28;20440;-67
2021/01/22 14:05:57;;;;;;;10.80;1.35;;;;;;;;;;4983022;28;20060;-67
2021/01/22 14:12:02;;;;;;;9.65;1.40;;;;;;;;;;4984416;28;20076;-65
2021/01/22 14:14:28;;;;;;;18.75;2.78;;;;;;;;;;4980118;28;20124;-67
2021/01/22 14:16:54;;;;;;;12.63;1.63;;;;;;;;;;4970005;28;20034;-67
2021/01/22 14:19:19;;;;;;;15.32;1.67;;;;;;;;;;4980971;28;20030;-66
2021/01/22 14:21:51;;;;;;;10.88;1.70;;;;;;;;;;4977233;28;20061;-67
2021/01/22 14:24:16;;;;;;;7.22;1.10;;;;;;;;;;4953700;28;20108;-65
2021/01/22 14:26:44;;;;;;;8.30;1.55;;;;;;;;;;4984558;28;20505;-65
2021/01/22 14:29:12;;;;;;;10.93;1.45;;;;;;;;;;4982730;28;20513;-65
2021/01/22 14:31:37;;;;;;;8.52;1.73;;;;;;;;;;4954132;28;20041;-66
2021/01/22 14:34:03;;;;;;;11.20;1.55;;;;;;;;;;4987787;28;20066;-66
2021/01/22 14:36:31;;;;;;;14.88;2.20;;;;;;;;;;4973540;28;20078;-67
2021/01/22 14:39:01;;;;;;;8.30;1.30;;;;;;;;;;4980001;28;20045;-65
2021/01/22 14:41:30;;;;;;;11.77;1.10;;;;;;;;;;4986677;28;20450;-66
2021/01/22 14:43:56;;;;;;;9.40;1.63;;;;;;;;;;4983829;28;20025;-67
2021/01/22 14:46:22;;;;;;;15.40;2.20;;;;;;;;;;4965528;28;20253;-65
2021/01/22 14:48:52;;;;;;;11.10;1.67;;;;;;;;;;4987115;28;20724;-66
2021/01/22 14:51:20;;;;;;;11.68;1.92;;;;;;;;;;4986011;28;20366;-67
2021/01/22 14:53:48;;;;;;;13.18;1.80;;;;;;;;;;4984477;28;20492;-66
2021/01/22 14:56:13;;;;;;;8.23;1.55;;;;;;;;;;4951293;28;20034;-65
2021/01/22 15:02:16;;;;;;;15.98;1.67;;;;;;;;;;4985783;28;20036;-70
2021/01/22 15:04:54;;;;;;;7.18;1.55;;;;;;;;;;4984103;28;20037;-66
2021/01/22 15:07:52;;;;;;;10.23;1.02;;;;;;;;;;4984265;28;20034;-65
2021/01/22 15:10:20;;;;;;;9.38;1.42;;;;;;;;;;4985265;28;20526;-66
2021/01/22 15:12:48;;;;;;;7.22;1.10;;;;;;;;;;4985819;28;20018;-66
2021/01/22 15:15:15;;;;;;;5.80;1.55;;;;;;;;;;4984774;28;20038;-66
2021/01/22 15:17:59;;;;;;;11.20;1.58;;;;;;;;;;4986308;28;20441;-67
2021/01/22 15:20:27;;;;;;;11.38;2.08;;;;;;;;;;4985026;28;20409;-65
2021/01/22 15:22:59;;;;;;;6.75;1.48;;;;;;;;;;4982849;28;20062;-66
2021/01/22 15:25:25;;;;;;;5.50;1.23;;;;;;;;;;4982688;28;20048;-68
2021/01/22 15:28:22;;;;;;;3.33;1.15;;;;;;;;;;4984312;28;20026;-68
2021/01/22 15:30:50;;;;;;;8.75;0.88;;;;;;;;;;4982618;28;20133;-67
2021/01/22 15:33:16;;;;;;;6.85;1.35;;;;;;;;;;4984775;28;20034;-67
2021/01/22 15:35:43;;;;;;;4.20;1.00;;;;;;;;;;4985267;28;20120;-67
2021/01/22 15:38:11;;;;;;;10.73;1.83;;;;;;;;;;4982778;28;20948;-67
2021/01/22 15:40:39;;;;;;;11.60;1.98;;;;;;;;;;4982018;28;20563;-66
2021/01/22 15:43:04;;;;;;;8.23;2.15;;;;;;;;;;4965689;28;20279;-68
2021/01/22 15:45:30;;;;;;;5.22;1.63;;;;;;;;;;4974752;28;20248;-69
2021/01/22 15:47:58;;;;;;;8.75;1.50;;;;;;;;;;4982297;28;20037;-67
2021/01/22 15:50:58;;;;;;;19.65;1.55;;;;;;;;;;4982912;28;20481;-66
2021/01/22 15:53:26;;;;;;;5.90;1.33;;;;;;;;;;4983158;28;20240;-66
2021/01/22 15:59:27;;;;;;;7.82;2.00;;;;;;;;;;4979759;28;20118;-68
2021/01/22 16:01:53;;;;;;;8.77;1.38;;;;;;;;;;4984458;28;20041;-66
2021/01/22 16:04:18;;;;;;;8.38;1.15;;;;;;;;;;4974733;28;22288;-66
2021/01/22 16:06:47;;;;;;;8.50;1.60;;;;;;;;;;4981022;28;20115;-66
2021/01/22 16:12:21;;;;;;;18.85;2.20;;;;;;;;;;4983405;28;20350;-66
2021/01/22 16:14:49;;;;;;;10.98;1.77;;;;;;;;;;4984170;28;20034;-67
2021/01/22 16:17:21;;;;;;;6.13;1.58;;;;;;;;;;4976838;28;20076;-65
2021/01/22 16:23:22;;;;;;;7.43;2.08;;;;;;;;;;4977320;28;20056;-68
2021/01/22 16:25:49;;;;;;;13.55;1.60;;;;;;;;;;4974835;28;20034;-67
2021/01/22 16:28:18;;;;;;;10.18;2.25;;;;;;;;;;4979369;28;20056;-67
2021/01/22 16:30:43;;;;;;;12.27;1.02;;;;;;;;;;4976948;28;20034;-66
2021/01/22 16:33:13;;;;;;;7.47;1.95;;;;;;;;;;4973071;28;20442;-66
2021/01/22 16:35:38;;;;;;;4.55;1.00;;;;;;;;;;4969089;28;20050;-66
2021/01/22 16:38:08;;;;;;;9.02;1.95;;;;;;;;;;4984016;28;20809;-65
2021/01/22 16:40:34;;;;;;;12.18;1.70;;;;;;;;;;4987335;28;20564;-66